< < Back
Terminal Aerodrome Forecast


Current Version              Previous Versions:   1  2  3  4  5  6  7  8  9  

Terminal Aerodrome Forecast

941
FTUS42 KTAE 251720
TAFABY
TAF
KABY 251720Z 2518/2618 08006KT P6SM VCTS BKN050CB
     FM252200 12003KT P6SM SCT100
     FM261000 00000KT 2SM BR SCT015
     FM261300 08006KT P6SM BKN020=

Latest METAR

269
SAUS70 KWBC 260656
MTRABY
METAR KABY 260653Z AUTO 00000KT 10SM CLR 22/21 A3005 RMK AO2 SLP174
T02220206


USA.gov is the U.S. government's official web portal to all federal, state and local government web resources and services.